Thursday, September 20, 2018, 12:45 PM EDT
Back to Local

KELM, Elmira County Airport

Location: Horseheads, NY, United States Lat: 42.167
Local Time: 12:45 PM EDT (16:45 GMT) Lon: -76.9
Time Zone: US/Eastern Elev: 954 ft

Show me the last for .
Show Decoded

2018-09-20 12:29 METAR KELM 201629Z 00000KT 10SM BKN023 21/14 A3020 RMK AO2 T02110144 =
2018-09-20 11:53 METAR KELM 201553Z VRB06KT 10SM CLR 21/15 A3020 RMK AO2 SLP222 T02060150 =
2018-09-20 10:53 METAR KELM 201453Z VRB03KT 10SM SCT004 17/14 A3021 RMK AO2 SLP228 T01720139
                 58001 =
2018-09-20 10:39 METAR KELM 201439Z 00000KT 10SM SCT004 15/13 A3022 RMK AO2 T01500133 =
2018-09-20 09:57 METAR KELM 201357Z 00000KT 3SM BR OVC002 14/13 A3023 RMK AO2 T01390128 =
2018-09-20 09:53 METAR KELM 201353Z 08003KT 1/4SM R24/P6000FT FG OVC002 14/13 A3022 RMK AO2
                 SLP234 T01390128 =
2018-09-20 09:09 METAR KELM 201309Z 04003KT 1/4SM R24/1400V1800FT FG VV002 13/12 A3022 RMK AO2
                 T01280122 =
2018-09-20 08:53 METAR KELM 201253Z 01003KT 3/4SM R24/1200V1400FT BR OVC002 12/12 A3021 RMK AO2
                 SLP231 T01220117 =
2018-09-20 08:49 METAR KELM 201249Z 00000KT 1/4SM R24/1200V1400FT FG VV002 12/12 A3021 RMK AO2 =
2018-09-20 08:28 METAR KELM 201228Z 00000KT 1/2SM R24/1400V1800FT FG VV002 12/11 A3021 RMK AO2
                 T01170111 =
2018-09-20 08:00 METAR KELM 201200Z 00000KT 1/4SM R24/1200V1800FT FG VV002 12/11 A3020 RMK AO2
                 T01170111 =
2018-09-20 07:53 METAR KELM 201153Z 00000KT 1/2SM R24/1400V2000FT FG VV002 12/11 A3020 RMK AO2
                 SLP226 70002 T01170111 10144 20106 53015 =
2018-09-20 07:25 METAR KELM 201125Z 00000KT 1/2SM R24/1600V2200FT FG OVC002 11/11 A3019 RMK AO2
                 T01110106 =
2018-09-20 07:02 METAR KELM 201102Z 00000KT 1/4SM R24/1000V1400FT FG OVC003 11/10 A3018 RMK AO2
                 T01110100 =
2018-09-20 06:53 METAR KELM 201053Z 05003KT 10SM R24/1400V4500FT OVC003 11/10 A3018 RMK AO2
                 SLP219 T01110100 =
2018-09-20 05:53 METAR KELM 200953Z 00000KT 10SM OVC004 11/10 A3015 RMK AO2 CIG 002V006 SLP210
                 T01110100 =
2018-09-20 05:50 METAR KELM 200950Z 00000KT 10SM OVC004 11/10 A3016 RMK AO2 CIG 002V006 =
2018-09-20 05:39 METAR KELM 200939Z AUTO 00000KT 9SM BKN006 11/10 A3015 RMK AO2 CIG 003V007
                 T01110100 =
2018-09-20 05:09 METAR KELM 200909Z AUTO 00000KT 5SM BR FEW006 11/10 A3013 RMK AO2 T01060100 =
2018-09-20 05:01 METAR KELM 200901Z AUTO 00000KT 2 1/2SM BR CLR 11/10 A3013 RMK AO2 VIS 1V5
                 T01110100 =
2018-09-20 04:53 METAR KELM 200853Z AUTO 00000KT 4SM BR CLR 11/11 A3013 RMK AO2 SLP201 T01110106
                 53001 =
2018-09-20 03:53 METAR KELM 200753Z AUTO 06004KT 10SM CLR 12/11 A3013 RMK AO2 SLP200 T01220111 =
2018-09-20 02:53 METAR KELM 200653Z AUTO 00000KT 10SM CLR 13/11 A3013 RMK AO2 SLP199 T01280111 =
2018-09-20 02:22 METAR KELM 200622Z AUTO 03003KT 10SM SCT021 13/12 A3012 RMK AO2 T01280117 =
2018-09-20 01:53 METAR KELM 200553Z AUTO 07004KT 10SM BKN022 14/12 A3013 RMK AO2 SLP199 T01390122
                 10183 20133 50000 =
2018-09-20 01:16 METAR KELM 200516Z AUTO 36004KT 10SM SCT024 14/12 A3014 RMK AO2 T01390117 =
2018-09-20 00:53 METAR KELM 200453Z AUTO 00000KT 10SM OVC025 16/13 A3015 RMK AO2 SLP205 T01560128
                 402390150 =
2018-09-19 23:53 METAR KELM 200353Z AUTO 00000KT 10SM OVC022 17/13 A3013 RMK AO2 SLP200 T01670128
                 =
2018-09-19 22:53 METAR KELM 200253Z AUTO 00000KT 10SM OVC022 16/13 A3013 RMK AO2 SLP199 T01610128
                 51015 =
2018-09-19 21:53 METAR KELM 200153Z AUTO 06007KT 10SM OVC021 17/13 A3012 RMK AO2 SLP197 T01720128
                 =
2018-09-19 20:53 METAR KELM 200053Z AUTO 02004KT 10SM BKN020 17/13 A3010 RMK AO2 SLP191 T01720133
                 =
2018-09-19 20:29 METAR KELM 200029Z AUTO 08005KT 10SM BKN020 OVC034 18/14 A3010 RMK AO2 T01780139
                 =
2018-09-19 19:53 METAR KELM 192353Z AUTO 05004KT 10SM BKN034 18/14 A3008 RMK AO2 SLP183 T01830139
                 10239 20178 51023 =
2018-09-19 18:53 METAR KELM 192253Z AUTO 03008KT 10SM CLR 19/15 A3006 RMK AO2 SLP174 T01940150 =
2018-09-19 17:53 METAR KELM 192153Z AUTO 01009KT 10SM BKN036 21/15 A3004 RMK AO2 SLP168 T02110150
                 =
2018-09-19 16:53 METAR KELM 192053Z AUTO 04009KT 10SM CLR 23/15 A3001 RMK AO2 SLP158 T02280150
                 50003 =
2018-09-19 15:53 METAR KELM 191953Z AUTO 03008KT 10SM BKN041 23/16 A3003 RMK AO2 SLP164 T02330156
                 =
2018-09-19 14:53 METAR KELM 191853Z AUTO 36005KT 10SM SCT033 23/16 A3002 RMK AO2 SLP161 T02330156
                 =
2018-09-19 13:53 METAR KELM 191753Z 04006KT 10SM BKN033 23/14 A3000 RMK AO2 SLP155 60002
                 T02280144 10233 20178 57010 =
2018-09-19 12:53 METAR KELM 191653Z 03004KT 10SM OVC033 22/14 A3001 RMK AO2 SLP159 T02170144 =

Support USWX by starting your Amazon purchase here.